createdAt,value
2023-02-20T00:01:27.920Z,2.83
2023-02-20T00:03:54.457Z,2.57
2023-02-20T00:06:20.939Z,2.83
2023-02-20T00:08:47.332Z,3.23
2023-02-20T00:11:14.023Z,3.40
2023-02-20T00:13:49.178Z,3.23
2023-02-20T00:16:15.557Z,3.27
2023-02-20T00:18:42.082Z,3.10
2023-02-20T00:21:08.529Z,3.07
2023-02-20T00:23:35.436Z,3.23
2023-02-20T00:26:02.157Z,3.03
2023-02-20T00:28:29.796Z,3.63
2023-02-20T00:30:56.710Z,3.53
2023-02-20T00:33:23.254Z,3.07
2023-02-20T00:35:49.619Z,3.40
2023-02-20T00:38:16.639Z,3.40
2023-02-20T00:40:43.100Z,3.13
2023-02-20T00:43:09.443Z,3.50
2023-02-20T00:45:35.855Z,3.47
2023-02-20T00:48:02.293Z,3.33
2023-02-20T00:50:28.630Z,3.13
2023-02-20T00:52:54.996Z,3.10
2023-02-20T00:55:21.387Z,3.77
2023-02-20T00:57:47.792Z,3.33
2023-02-20T01:00:27.598Z,3.67
2023-02-20T01:02:53.977Z,3.27
2023-02-20T01:05:20.581Z,3.50
2023-02-20T01:07:47.403Z,3.73
2023-02-20T01:10:14.642Z,3.60
2023-02-20T01:12:41.025Z,4.03
2023-02-20T01:15:08.786Z,3.37
2023-02-20T01:17:35.410Z,3.77
2023-02-20T01:20:01.805Z,3.87
2023-02-20T01:22:28.187Z,3.57
2023-02-20T01:24:55.123Z,3.83
2023-02-20T01:27:21.455Z,4.20
2023-02-20T01:29:47.823Z,3.80
2023-02-20T01:32:14.505Z,4.40
2023-02-20T01:34:40.930Z,4.70
2023-02-20T01:37:07.474Z,4.13
2023-02-20T01:39:33.839Z,4.60
2023-02-20T01:42:03.333Z,4.47
2023-02-20T01:44:33.298Z,4.50
2023-02-20T01:47:12.972Z,4.93
2023-02-20T01:49:47.233Z,4.50
2023-02-20T01:52:28.974Z,4.87
2023-02-20T01:55:16.990Z,5.27
2023-02-20T01:57:51.079Z,5.90
2023-02-20T02:00:20.629Z,4.63
2023-02-20T02:02:55.329Z,5.83
2023-02-20T02:05:24.802Z,6.87
2023-02-20T02:07:51.805Z,4.80
2023-02-20T02:10:22.534Z,5.30
2023-02-20T02:12:53.103Z,4.43
2023-02-20T02:15:22.619Z,5.30
2023-02-20T02:18:23.181Z,6.77
2023-02-20T02:21:32.625Z,5.97
2023-02-20T02:24:26.922Z,7.30
2023-02-20T02:27:02.339Z,6.47
2023-02-20T02:29:52.494Z,7.80
2023-02-20T02:32:51.364Z,8.97
2023-02-20T02:35:30.891Z,8.90
2023-02-20T02:38:04.225Z,8.90
2023-02-20T02:40:42.489Z,9.13
2023-02-20T02:43:20.144Z,7.97
2023-02-20T02:45:59.472Z,8.13
2023-02-20T02:48:34.467Z,7.20
2023-02-20T02:51:13.419Z,8.27
2023-02-20T02:53:39.755Z,7.70
2023-02-20T02:56:21.610Z,8.27
2023-02-20T02:58:50.409Z,7.90
2023-02-20T03:01:20.318Z,7.47
2023-02-20T03:03:48.318Z,7.60
2023-02-20T03:06:23.090Z,6.60
2023-02-20T03:08:57.656Z,7.53
2023-02-20T03:11:27.637Z,6.67
2023-02-20T03:14:17.948Z,6.93
2023-02-20T03:17:15.021Z,6.50
2023-02-20T03:19:51.674Z,7.17
2023-02-20T03:22:24.271Z,6.70
2023-02-20T03:24:57.169Z,7.23
2023-02-20T03:27:50.453Z,6.60
2023-02-20T03:30:28.923Z,6.73
2023-02-20T03:33:30.203Z,7.13
2023-02-20T03:36:17.855Z,6.80
2023-02-20T03:39:08.629Z,6.93
2023-02-20T03:41:58.461Z,6.37
2023-02-20T03:44:28.029Z,6.57
2023-02-20T03:46:57.434Z,6.90
2023-02-20T03:49:31.447Z,6.67
2023-02-20T03:51:58.816Z,7.43
2023-02-20T03:54:27.952Z,6.90
2023-02-20T03:56:59.372Z,6.53
2023-02-20T03:59:32.339Z,6.13
2023-02-20T04:02:04.208Z,7.03
2023-02-20T04:04:40.021Z,6.23
2023-02-20T04:07:12.192Z,6.20
2023-02-20T04:09:44.114Z,5.57
2023-02-20T04:12:24.718Z,6.63
2023-02-20T04:14:54.198Z,6.70
2023-02-20T04:17:25.746Z,6.40
2023-02-20T04:19:52.451Z,8.93
2023-02-20T04:22:24.336Z,7.20
2023-02-20T04:25:01.720Z,6.63
2023-02-20T04:27:28.133Z,6.47
2023-02-20T04:29:54.826Z,6.97
2023-02-20T04:32:21.291Z,6.17
2023-02-20T04:34:47.674Z,7.00
2023-02-20T04:37:17.235Z,7.07
2023-02-20T04:39:43.624Z,7.20
2023-02-20T04:42:10.523Z,7.03
2023-02-20T04:44:37.323Z,7.60
2023-02-20T04:47:06.717Z,6.77
2023-02-20T04:49:33.469Z,6.97
2023-02-20T04:52:00.574Z,6.97
2023-02-20T04:54:26.962Z,6.90
2023-02-20T04:56:53.768Z,6.37
2023-02-20T04:59:20.775Z,7.27
2023-02-20T05:01:52.090Z,7.07
2023-02-20T05:04:20.096Z,6.40
2023-02-20T05:06:52.564Z,6.40
2023-02-20T05:09:20.282Z,6.47
2023-02-20T05:11:46.709Z,6.90
2023-02-20T05:14:13.373Z,7.23
2023-02-20T05:16:40.581Z,7.00
2023-02-20T05:19:08.121Z,6.93
2023-02-20T05:21:53.756Z,6.90
2023-02-20T05:24:20.562Z,6.80
2023-02-20T05:26:47.016Z,7.00
2023-02-20T05:29:13.823Z,7.40
2023-02-20T05:31:40.877Z,6.43
2023-02-20T05:34:08.242Z,6.60
2023-02-20T05:36:35.127Z,6.63
2023-02-20T05:39:02.151Z,6.43
2023-02-20T05:41:28.490Z,6.27
2023-02-20T05:43:57.484Z,7.20
2023-02-20T05:46:27.750Z,6.30
2023-02-20T05:48:54.811Z,7.23
2023-02-20T05:51:28.964Z,7.60
2023-02-20T05:53:55.885Z,7.00
2023-02-20T05:56:22.898Z,7.60
2023-02-20T05:58:49.877Z,6.70
2023-02-20T06:01:18.528Z,7.50
2023-02-20T06:03:45.038Z,7.20
2023-02-20T06:06:12.368Z,8.53
2023-02-20T06:08:40.030Z,7.43
2023-02-20T06:11:06.853Z,6.80
2023-02-20T06:13:33.290Z,7.17
2023-02-20T06:15:59.674Z,7.30
2023-02-20T06:18:26.000Z,7.80
2023-02-20T06:20:52.603Z,7.53
2023-02-20T06:23:19.087Z,7.00
2023-02-20T06:25:45.522Z,6.77
2023-02-20T06:28:11.852Z,6.60
2023-02-20T06:30:38.370Z,7.00
2023-02-20T06:33:04.869Z,6.63
2023-02-20T06:35:31.225Z,7.67
2023-02-20T06:37:57.644Z,7.40
2023-02-20T06:40:24.168Z,7.53
2023-02-20T06:42:50.542Z,6.93
2023-02-20T06:45:17.003Z,6.77
2023-02-20T06:47:43.402Z,6.33
2023-02-20T06:50:09.783Z,6.80
2023-02-20T06:52:36.237Z,7.20
2023-02-20T06:55:02.677Z,6.77
2023-02-20T06:57:29.033Z,7.00
2023-02-20T06:59:55.445Z,7.33
2023-02-20T07:02:22.024Z,7.07
2023-02-20T07:04:49.507Z,6.67
2023-02-20T07:07:16.013Z,6.00
2023-02-20T07:09:44.501Z,7.33
2023-02-20T07:12:11.282Z,7.47
2023-02-20T07:14:37.829Z,7.63
2023-02-20T07:17:04.202Z,7.37
2023-02-20T07:19:30.534Z,8.67
2023-02-20T07:21:57.132Z,9.20
2023-02-20T07:24:23.565Z,8.50
2023-02-20T07:26:49.982Z,7.80
2023-02-20T07:29:16.304Z,8.70
2023-02-20T07:31:42.884Z,8.97
2023-02-20T07:34:09.342Z,7.40
2023-02-20T07:36:36.192Z,8.00
2023-02-20T07:39:03.971Z,8.13
2023-02-20T07:41:32.350Z,8.10
2023-02-20T07:43:59.078Z,8.07
2023-02-20T07:46:25.617Z,7.50
2023-02-20T07:48:53.128Z,8.10
2023-02-20T07:51:19.748Z,7.97
2023-02-20T07:53:50.637Z,8.03
2023-02-20T07:56:17.699Z,8.07
2023-02-20T07:58:44.104Z,8.03
2023-02-20T08:01:10.570Z,7.47
2023-02-20T08:03:36.941Z,7.90
2023-02-20T08:06:03.632Z,7.60
2023-02-20T08:08:30.066Z,7.07
2023-02-20T08:11:08.409Z,7.10
2023-02-20T08:13:36.300Z,6.67
2023-02-20T08:16:02.754Z,7.43
2023-02-20T08:18:29.152Z,6.90
2023-02-20T08:20:55.541Z,6.90
2023-02-20T08:23:24.436Z,6.57
2023-02-20T08:25:51.880Z,6.83
2023-02-20T08:28:18.475Z,6.47
2023-02-20T08:30:44.969Z,6.97
2023-02-20T08:33:11.385Z,6.03
2023-02-20T08:35:37.843Z,5.83
2023-02-20T08:38:06.600Z,5.93
2023-02-20T08:40:34.081Z,6.03
2023-02-20T08:43:00.630Z,6.03
2023-02-20T08:45:27.189Z,5.60
2023-02-20T08:48:01.819Z,5.70
2023-02-20T08:50:29.410Z,5.67
2023-02-20T08:52:55.807Z,5.57
2023-02-20T08:55:22.551Z,5.47
2023-02-20T08:57:48.982Z,6.10
2023-02-20T09:00:17.387Z,5.70
2023-02-20T09:02:43.831Z,5.63
2023-02-20T09:05:10.611Z,5.67
2023-02-20T09:07:37.288Z,5.70
2023-02-20T09:10:05.022Z,5.23
2023-02-20T09:12:32.325Z,5.40
2023-02-20T09:15:02.232Z,5.70
2023-02-20T09:17:29.697Z,5.60
2023-02-20T09:19:56.167Z,5.60
2023-02-20T09:22:24.519Z,5.87
2023-02-20T09:24:52.441Z,5.80
2023-02-20T09:27:19.145Z,6.37
2023-02-20T09:29:45.778Z,5.80
2023-02-20T09:32:13.239Z,5.93
2023-02-20T09:34:40.174Z,5.87
2023-02-20T09:37:08.394Z,5.70
2023-02-20T09:39:34.841Z,5.30
2023-02-20T09:42:07.140Z,5.07
2023-02-20T09:44:42.706Z,5.60
2023-02-20T09:47:20.755Z,5.17
2023-02-20T09:49:47.394Z,5.73
2023-02-20T09:52:16.961Z,7.03
2023-02-20T09:54:48.569Z,6.30
2023-02-20T09:57:27.694Z,6.03
2023-02-20T10:00:04.668Z,5.70
2023-02-20T10:03:17.170Z,6.57
2023-02-20T10:05:45.767Z,5.63
2023-02-20T10:08:21.022Z,9.40
2023-02-20T10:10:50.287Z,6.03
2023-02-20T10:13:48.006Z,6.37
2023-02-20T10:16:17.332Z,5.50
2023-02-20T10:19:02.341Z,6.23
2023-02-20T10:21:43.913Z,6.70
2023-02-20T10:24:48.029Z,6.90
2023-02-20T10:27:30.962Z,6.80
2023-02-20T10:29:59.782Z,7.03
2023-02-20T10:32:38.540Z,6.30
2023-02-20T10:35:11.774Z,6.77
2023-02-20T10:37:48.066Z,6.50
2023-02-20T10:40:37.451Z,7.17
2023-02-20T10:43:24.252Z,6.97
2023-02-20T10:46:13.233Z,7.47
2023-02-20T10:48:42.695Z,7.17
2023-02-20T10:51:11.469Z,7.47
2023-02-20T10:54:08.936Z,7.63
2023-02-20T10:56:38.568Z,7.60
2023-02-20T10:59:17.481Z,7.97
2023-02-20T11:01:46.618Z,7.33
2023-02-20T11:04:19.593Z,7.20
2023-02-20T11:06:54.898Z,7.83
2023-02-20T11:09:23.304Z,7.20
2023-02-20T11:11:49.728Z,7.43
2023-02-20T11:14:21.682Z,6.93
2023-02-20T11:17:06.544Z,7.43
2023-02-20T11:19:41.540Z,8.10
2023-02-20T11:22:08.476Z,8.77
2023-02-20T11:24:36.635Z,8.10
2023-02-20T11:27:07.830Z,7.60
2023-02-20T11:29:47.208Z,8.30
2023-02-20T11:32:28.472Z,7.83
2023-02-20T11:35:19.653Z,7.97
2023-02-20T11:37:55.334Z,8.40
2023-02-20T11:40:31.861Z,8.23
2023-02-20T11:43:13.461Z,8.17
2023-02-20T11:45:40.760Z,8.17
2023-02-20T11:48:10.578Z,8.37
2023-02-20T11:50:42.984Z,8.37
2023-02-20T11:53:33.020Z,8.80
2023-02-20T11:56:14.223Z,8.67
2023-02-20T11:58:42.395Z,8.40
2023-02-20T12:01:30.210Z,9.00
2023-02-20T12:03:59.160Z,9.83
2023-02-20T12:06:36.151Z,8.50
2023-02-20T12:09:04.698Z,8.73
2023-02-20T12:11:31.018Z,8.50
2023-02-20T12:14:00.733Z,8.87
2023-02-20T12:16:49.489Z,8.30
2023-02-20T12:19:46.983Z,8.40
2023-02-20T12:22:22.142Z,9.13
2023-02-20T12:25:01.797Z,8.63
2023-02-20T12:27:58.298Z,7.93
2023-02-20T12:30:47.778Z,8.27
2023-02-20T12:33:29.131Z,8.40
2023-02-20T12:36:01.521Z,9.03
2023-02-20T12:38:37.754Z,8.17
2023-02-20T12:41:19.301Z,8.97
2023-02-20T12:44:12.774Z,9.57
2023-02-20T12:47:11.469Z,9.10
2023-02-20T12:49:58.957Z,9.37
2023-02-20T12:52:29.041Z,10.03
2023-02-20T12:55:17.727Z,8.43
2023-02-20T12:58:11.198Z,10.20
2023-02-20T13:00:47.076Z,9.90
2023-02-20T13:03:25.173Z,10.43
2023-02-20T13:05:53.082Z,8.83
2023-02-20T13:08:46.487Z,9.77
2023-02-20T13:11:20.882Z,9.37
2023-02-20T13:14:06.478Z,10.00
2023-02-20T13:17:18.350Z,10.17
2023-02-20T13:20:00.827Z,9.80
2023-02-20T13:22:27.315Z,9.50
2023-02-20T13:24:53.636Z,9.33
2023-02-20T13:27:30.558Z,9.47
2023-02-20T13:30:02.665Z,10.00
2023-02-20T13:32:33.011Z,9.80
2023-02-20T13:35:36.777Z,10.17
2023-02-20T13:38:29.811Z,10.63
2023-02-20T13:40:56.179Z,10.47
2023-02-20T13:43:22.543Z,9.73
2023-02-20T13:46:11.599Z,10.70
2023-02-20T13:48:50.230Z,9.77
2023-02-20T13:51:17.502Z,10.43
2023-02-20T13:53:53.334Z,10.30
2023-02-20T13:56:22.409Z,10.20
2023-02-20T13:58:50.618Z,11.83
2023-02-20T14:01:17.279Z,9.77
2023-02-20T14:03:43.704Z,9.80
2023-02-20T14:06:16.271Z,10.03
2023-02-20T14:08:45.272Z,10.40
2023-02-20T14:11:25.784Z,9.77
2023-02-20T14:13:56.853Z,10.10
2023-02-20T14:16:35.508Z,10.43
2023-02-20T14:19:24.058Z,10.03
2023-02-20T14:21:50.420Z,10.17
2023-02-20T14:24:22.672Z,9.97
2023-02-20T14:26:51.695Z,10.73
2023-02-20T14:29:33.436Z,10.53
2023-02-20T14:32:02.338Z,9.57
2023-02-20T14:34:42.331Z,9.30
2023-02-20T14:37:12.442Z,9.70
2023-02-20T14:39:51.517Z,9.07
2023-02-20T14:42:23.799Z,9.13
2023-02-20T14:45:03.274Z,9.63
2023-02-20T14:47:30.561Z,9.27
2023-02-20T14:50:17.865Z,7.93
2023-02-20T14:52:44.215Z,9.07
2023-02-20T14:55:17.517Z,8.50
2023-02-20T14:57:44.062Z,8.13
2023-02-20T15:00:16.469Z,8.93
2023-02-20T15:02:48.036Z,8.33
2023-02-20T15:05:18.962Z,8.43
2023-02-20T15:07:46.124Z,8.53
2023-02-20T15:10:35.225Z,8.57
2023-02-20T15:13:09.257Z,8.30
2023-02-20T15:15:38.077Z,9.20
2023-02-20T15:18:34.679Z,8.67
2023-02-20T15:21:02.071Z,9.70
2023-02-20T15:23:37.606Z,10.17
2023-02-20T15:26:30.985Z,9.57
2023-02-20T15:29:25.058Z,9.90
2023-02-20T15:32:05.704Z,10.87
2023-02-20T15:34:37.522Z,10.17
2023-02-20T15:37:33.741Z,11.03
2023-02-20T15:40:17.578Z,9.20
2023-02-20T15:42:43.992Z,9.03
2023-02-20T15:45:13.146Z,8.43
2023-02-20T15:47:39.473Z,8.40
2023-02-20T15:50:06.355Z,7.90
2023-02-20T15:52:32.812Z,8.40
2023-02-20T15:55:01.782Z,8.90
2023-02-20T15:57:28.168Z,8.07
2023-02-20T15:59:55.753Z,8.97
2023-02-20T16:02:24.380Z,8.60
2023-02-20T16:04:51.894Z,9.40
2023-02-20T16:07:20.075Z,9.90
2023-02-20T16:09:46.749Z,9.03
2023-02-20T16:12:26.850Z,8.50
2023-02-20T16:14:53.907Z,8.73
2023-02-20T16:17:25.990Z,9.23
2023-02-20T16:19:52.895Z,8.90
2023-02-20T16:22:19.299Z,8.60
2023-02-20T16:24:45.824Z,8.27
2023-02-20T16:27:24.933Z,8.37
2023-02-20T16:29:52.720Z,8.50
2023-02-20T16:32:22.636Z,8.57
2023-02-20T16:34:49.964Z,7.97
2023-02-20T16:37:16.865Z,7.97
2023-02-20T16:39:43.794Z,8.67
2023-02-20T16:42:33.659Z,8.47
2023-02-20T16:45:22.501Z,7.73
2023-02-20T16:47:52.692Z,7.70
2023-02-20T16:50:23.331Z,7.17
2023-02-20T16:52:51.285Z,7.50
2023-02-20T16:55:22.382Z,7.67
2023-02-20T16:57:49.038Z,7.73
2023-02-20T17:00:17.453Z,7.07
2023-02-20T17:02:44.388Z,7.80
2023-02-20T17:05:11.301Z,7.87
2023-02-20T17:07:37.748Z,7.30
2023-02-20T17:10:08.192Z,9.03
2023-02-20T17:12:35.103Z,8.10
2023-02-20T17:15:02.239Z,7.73
2023-02-20T17:17:28.818Z,7.67
2023-02-20T17:19:58.481Z,7.90
2023-02-20T17:22:25.628Z,7.40
2023-02-20T17:24:52.947Z,7.80
2023-02-20T17:27:19.934Z,8.03
2023-02-20T17:29:47.344Z,9.23
2023-02-20T17:32:15.262Z,8.67
2023-02-20T17:34:42.319Z,7.93
2023-02-20T17:37:09.873Z,7.77
2023-02-20T17:39:37.459Z,8.70
2023-02-20T17:42:04.174Z,8.27
2023-02-20T17:44:30.999Z,8.23
2023-02-20T17:46:59.820Z,8.63
2023-02-20T17:49:27.250Z,8.33
2023-02-20T17:51:58.510Z,8.40
2023-02-20T17:54:25.241Z,7.77
2023-02-20T17:56:52.168Z,8.00
2023-02-20T17:59:18.947Z,8.13
2023-02-20T18:01:45.473Z,8.13
2023-02-20T18:04:12.140Z,8.30
2023-02-20T18:06:39.150Z,8.53
2023-02-20T18:09:07.160Z,8.87
2023-02-20T18:11:34.004Z,8.10
2023-02-20T18:14:00.825Z,7.87
2023-02-20T18:16:28.481Z,8.57
2023-02-20T18:18:55.443Z,8.37
2023-02-20T18:21:27.555Z,8.63
2023-02-20T18:23:54.875Z,9.23
2023-02-20T18:26:21.597Z,8.10
2023-02-20T18:28:48.673Z,8.97
2023-02-20T18:31:18.077Z,9.17
2023-02-20T18:33:45.033Z,8.47
2023-02-20T18:36:11.668Z,8.30
2023-02-20T18:38:38.061Z,8.77
2023-02-20T18:41:05.295Z,9.33
2023-02-20T18:43:31.790Z,9.50
2023-02-20T18:45:58.155Z,9.60
2023-02-20T18:48:24.550Z,9.10
2023-02-20T18:50:51.648Z,8.13
2023-02-20T18:53:18.039Z,8.70
2023-02-20T18:55:44.424Z,9.27
2023-02-20T18:58:10.814Z,9.20
2023-02-20T19:00:38.921Z,9.17
2023-02-20T19:03:05.312Z,9.80
2023-02-20T19:05:31.808Z,8.43
2023-02-20T19:07:58.846Z,8.97
2023-02-20T19:10:27.243Z,8.50
2023-02-20T19:12:54.602Z,8.83
2023-02-20T19:15:25.166Z,9.63
2023-02-20T19:17:52.170Z,9.17
2023-02-20T19:20:24.051Z,8.83
2023-02-20T19:22:51.862Z,9.20
2023-02-20T19:25:19.640Z,10.10
2023-02-20T19:27:46.386Z,9.20
2023-02-20T19:30:13.723Z,9.07
2023-02-20T19:32:40.229Z,11.10
2023-02-20T19:35:07.300Z,11.13
2023-02-20T19:37:33.938Z,11.03
2023-02-20T19:40:00.749Z,11.57
2023-02-20T19:42:28.641Z,11.40
2023-02-20T19:44:55.355Z,10.70
2023-02-20T19:47:22.594Z,10.23
2023-02-20T19:49:49.016Z,9.17
2023-02-20T19:52:17.204Z,9.33
2023-02-20T19:54:45.419Z,8.37
2023-02-20T19:57:11.983Z,8.90
2023-02-20T19:59:38.463Z,8.80
2023-02-20T20:02:05.179Z,8.50
2023-02-20T20:04:33.679Z,8.33
2023-02-20T20:07:02.424Z,9.00
2023-02-20T20:09:36.156Z,9.47
2023-02-20T20:12:03.954Z,9.00
2023-02-20T20:14:30.316Z,10.13
2023-02-20T20:16:56.753Z,10.60
2023-02-20T20:19:23.121Z,10.93
2023-02-20T20:21:50.233Z,11.57
2023-02-20T20:24:16.647Z,12.17
2023-02-20T20:26:42.980Z,12.60
2023-02-20T20:29:09.363Z,13.33
2023-02-20T20:31:38.930Z,12.93
2023-02-20T20:34:06.204Z,12.67
2023-02-20T20:36:32.612Z,13.57
2023-02-20T20:38:59.112Z,13.13
2023-02-20T20:41:26.592Z,15.27
2023-02-20T20:43:56.117Z,15.23
2023-02-20T20:46:22.577Z,15.20
2023-02-20T20:48:49.111Z,16.07
2023-02-20T20:51:17.785Z,16.00
2023-02-20T20:53:45.405Z,17.17
2023-02-20T20:56:12.606Z,15.50
2023-02-20T20:58:39.455Z,16.80
2023-02-20T21:01:05.980Z,15.97
2023-02-20T21:03:32.404Z,15.00
2023-02-20T21:05:58.819Z,15.33
2023-02-20T21:08:25.144Z,15.93
2023-02-20T21:10:51.574Z,15.67
2023-02-20T21:13:18.073Z,14.40
2023-02-20T21:15:44.552Z,14.97
2023-02-20T21:18:11.130Z,14.67
2023-02-20T21:20:37.473Z,14.67
2023-02-20T21:23:04.950Z,14.23
2023-02-20T21:25:31.459Z,14.73
2023-02-20T21:27:58.340Z,14.03
2023-02-20T21:30:26.487Z,14.27
2023-02-20T21:32:53.811Z,13.17
2023-02-20T21:35:21.726Z,13.70
2023-02-20T21:37:48.241Z,14.73
2023-02-20T21:40:16.782Z,13.67
2023-02-20T21:43:02.010Z,13.73
2023-02-20T21:45:28.366Z,12.53
2023-02-20T21:47:54.784Z,12.43
2023-02-20T21:50:21.281Z,13.37
2023-02-20T21:52:47.731Z,12.60
2023-02-20T21:55:16.049Z,12.27
2023-02-20T21:57:42.594Z,12.90
2023-02-20T22:00:10.433Z,12.80
2023-02-20T22:02:37.176Z,12.37
2023-02-20T22:05:04.375Z,11.87
2023-02-20T22:07:49.604Z,12.63
2023-02-20T22:10:34.902Z,12.73
2023-02-20T22:13:20.003Z,11.33
2023-02-20T22:16:05.213Z,11.80
2023-02-20T22:18:50.013Z,12.00
2023-02-20T22:21:39.944Z,12.23
2023-02-20T22:24:37.292Z,11.70
2023-02-20T22:27:24.189Z,12.37
2023-02-20T22:30:09.048Z,12.03
2023-02-20T22:32:53.997Z,12.10
2023-02-20T22:35:38.889Z,11.20
2023-02-20T22:38:23.682Z,12.40
2023-02-20T22:41:08.936Z,12.50
2023-02-20T22:43:53.971Z,12.03
2023-02-20T22:46:40.853Z,12.53
2023-02-20T22:49:26.406Z,13.03
2023-02-20T22:52:11.155Z,12.53
2023-02-20T22:55:04.291Z,12.60
2023-02-20T22:57:50.653Z,12.47
2023-02-20T23:00:36.136Z,13.60
2023-02-20T23:03:21.502Z,12.73
2023-02-20T23:06:17.076Z,14.53
2023-02-20T23:09:03.309Z,13.30
2023-02-20T23:11:51.760Z,14.90
2023-02-20T23:14:36.445Z,14.53
2023-02-20T23:17:34.350Z,14.17
2023-02-20T23:20:20.796Z,14.50
2023-02-20T23:23:05.689Z,14.40
2023-02-20T23:25:50.627Z,15.10
2023-02-20T23:28:37.400Z,14.67
2023-02-20T23:31:22.922Z,15.43
2023-02-20T23:34:07.754Z,15.83
2023-02-20T23:36:52.495Z,15.93
2023-02-20T23:39:37.282Z,15.90
2023-02-20T23:42:22.550Z,15.73
2023-02-20T23:45:07.334Z,16.20
2023-02-20T23:47:51.969Z,16.13
2023-02-20T23:50:36.898Z,15.60
2023-02-20T23:53:21.519Z,15.77
2023-02-20T23:56:06.370Z,15.57
2023-02-20T23:58:51.090Z,16.40
